sensor_id;sensor_type;location;lat;lon;timestamp;pressure;altitude;pressure_sealevel;temperature;humidity
12757;BME280;31601;48.042;12.240;2023-02-20T00:01:38;97171.06;;;9.48;60.38
12757;BME280;31601;48.042;12.240;2023-02-20T00:04:05;97173.84;;;9.47;60.35
12757;BME280;31601;48.042;12.240;2023-02-20T00:06:34;97167.16;;;9.53;60.01
12757;BME280;31601;48.042;12.240;2023-02-20T00:09:01;97172.38;;;9.53;59.97
12757;BME280;31601;48.042;12.240;2023-02-20T00:11:27;97183.56;;;9.55;59.94
12757;BME280;31601;48.042;12.240;2023-02-20T00:13:53;97197.13;;;9.50;60.15
12757;BME280;31601;48.042;12.240;2023-02-20T00:16:21;97191.56;;;9.53;60.32
12757;BME280;31601;48.042;12.240;2023-02-20T00:18:48;97198.44;;;9.54;60.16
12757;BME280;31601;48.042;12.240;2023-02-20T00:21:14;97190.81;;;9.61;60.42
12757;BME280;31601;48.042;12.240;2023-02-20T00:23:41;97184.72;;;9.60;60.39
12757;BME280;31601;48.042;12.240;2023-02-20T00:26:08;97181.59;;;9.57;60.30
12757;BME280;31601;48.042;12.240;2023-02-20T00:28:36;97186.63;;;9.50;60.50
12757;BME280;31601;48.042;12.240;2023-02-20T00:31:04;97181.56;;;9.48;60.56
12757;BME280;31601;48.042;12.240;2023-02-20T00:33:32;97181.41;;;9.50;60.12
12757;BME280;31601;48.042;12.240;2023-02-20T00:35:58;97184.81;;;9.50;60.31
12757;BME280;31601;48.042;12.240;2023-02-20T00:38:25;97185.34;;;9.54;60.09
12757;BME280;31601;48.042;12.240;2023-02-20T00:40:51;97183.03;;;9.51;60.08
12757;BME280;31601;48.042;12.240;2023-02-20T00:43:18;97168.97;;;9.52;60.11
12757;BME280;31601;48.042;12.240;2023-02-20T00:45:44;97180.25;;;9.53;60.01
12757;BME280;31601;48.042;12.240;2023-02-20T00:48:11;97184.47;;;9.45;59.95
12757;BME280;31601;48.042;12.240;2023-02-20T00:50:38;97191.34;;;9.46;59.92
12757;BME280;31601;48.042;12.240;2023-02-20T00:53:05;97185.63;;;9.51;59.53
12757;BME280;31601;48.042;12.240;2023-02-20T00:55:31;97184.53;;;9.54;59.49
12757;BME280;31601;48.042;12.240;2023-02-20T00:57:58;97179.94;;;9.56;59.74
12757;BME280;31601;48.042;12.240;2023-02-20T01:00:26;97185.47;;;9.53;59.85
12757;BME280;31601;48.042;12.240;2023-02-20T01:02:53;97178.00;;;9.58;59.42
12757;BME280;31601;48.042;12.240;2023-02-20T01:05:20;97186.84;;;9.57;59.81
12757;BME280;31601;48.042;12.240;2023-02-20T01:07:47;97185.47;;;9.53;59.68
12757;BME280;31601;48.042;12.240;2023-02-20T01:10:14;97176.19;;;9.58;59.52
12757;BME280;31601;48.042;12.240;2023-02-20T01:12:40;97170.31;;;9.56;59.35
12757;BME280;31601;48.042;12.240;2023-02-20T01:15:08;97178.81;;;9.58;59.50
12757;BME280;31601;48.042;12.240;2023-02-20T01:17:34;97178.63;;;9.52;59.79
12757;BME280;31601;48.042;12.240;2023-02-20T01:20:01;97174.19;;;9.52;59.47
12757;BME280;31601;48.042;12.240;2023-02-20T01:22:28;97179.13;;;9.55;59.81
12757;BME280;31601;48.042;12.240;2023-02-20T01:24:55;97176.34;;;9.57;59.42
12757;BME280;31601;48.042;12.240;2023-02-20T01:27:22;97167.84;;;9.55;59.62
12757;BME280;31601;48.042;12.240;2023-02-20T01:29:48;97174.97;;;9.44;60.04
12757;BME280;31601;48.042;12.240;2023-02-20T01:32:15;97180.19;;;9.44;60.25
12757;BME280;31601;48.042;12.240;2023-02-20T01:34:41;97179.22;;;9.45;60.07
12757;BME280;31601;48.042;12.240;2023-02-20T01:37:11;97179.22;;;9.45;60.03
12757;BME280;31601;48.042;12.240;2023-02-20T01:39:38;97179.59;;;9.50;59.84
12757;BME280;31601;48.042;12.240;2023-02-20T01:42:08;97172.84;;;9.48;59.98
12757;BME280;31601;48.042;12.240;2023-02-20T01:44:38;97164.84;;;9.49;60.06
12757;BME280;31601;48.042;12.240;2023-02-20T01:47:07;97161.41;;;9.49;59.88
12757;BME280;31601;48.042;12.240;2023-02-20T01:49:37;97159.59;;;9.49;59.96
12757;BME280;31601;48.042;12.240;2023-02-20T01:52:10;97162.16;;;9.41;60.31
12757;BME280;31601;48.042;12.240;2023-02-20T01:54:40;97151.59;;;9.51;59.69
12757;BME280;31601;48.042;12.240;2023-02-20T01:57:13;97152.44;;;9.52;59.42
12757;BME280;31601;48.042;12.240;2023-02-20T01:59:42;97154.06;;;9.53;58.86
12757;BME280;31601;48.042;12.240;2023-02-20T02:02:09;97160.47;;;9.58;59.19
12757;BME280;31601;48.042;12.240;2023-02-20T02:04:38;97168.16;;;9.52;59.21
12757;BME280;31601;48.042;12.240;2023-02-20T02:07:05;97170.16;;;9.58;58.92
12757;BME280;31601;48.042;12.240;2023-02-20T02:09:43;97166.19;;;9.54;58.96
12757;BME280;31601;48.042;12.240;2023-02-20T02:12:14;97157.72;;;9.60;58.92
12757;BME280;31601;48.042;12.240;2023-02-20T02:14:40;97150.31;;;9.55;58.92
12757;BME280;31601;48.042;12.240;2023-02-20T02:17:39;97149.19;;;9.58;58.56
12757;BME280;31601;48.042;12.240;2023-02-20T02:20:26;97147.72;;;9.63;58.02
12757;BME280;31601;48.042;12.240;2023-02-20T02:23:16;97140.94;;;9.53;58.15
12757;BME280;31601;48.042;12.240;2023-02-20T02:25:51;97144.00;;;9.66;58.12
12757;BME280;31601;48.042;12.240;2023-02-20T02:29:03;97140.72;;;9.64;57.85
12757;BME280;31601;48.042;12.240;2023-02-20T02:32:04;97140.34;;;9.59;58.25
12757;BME280;31601;48.042;12.240;2023-02-20T02:34:51;97132.69;;;9.65;58.07
12757;BME280;31601;48.042;12.240;2023-02-20T02:37:29;97139.78;;;9.47;58.28
12757;BME280;31601;48.042;12.240;2023-02-20T02:40:01;97144.94;;;9.65;57.67
12757;BME280;31601;48.042;12.240;2023-02-20T02:42:37;97159.28;;;9.53;58.40
12757;BME280;31601;48.042;12.240;2023-02-20T02:45:10;97161.59;;;9.56;58.27
12757;BME280;31601;48.042;12.240;2023-02-20T02:47:44;97162.13;;;9.59;58.34
12757;BME280;31601;48.042;12.240;2023-02-20T02:50:16;97170.50;;;9.63;58.45
12757;BME280;31601;48.042;12.240;2023-02-20T02:52:46;97169.84;;;9.61;58.41
12757;BME280;31601;48.042;12.240;2023-02-20T02:55:17;97161.88;;;9.71;58.07
12757;BME280;31601;48.042;12.240;2023-02-20T02:57:44;97159.22;;;9.62;58.37
12757;BME280;31601;48.042;12.240;2023-02-20T03:00:13;97159.81;;;9.56;58.41
12757;BME280;31601;48.042;12.240;2023-02-20T03:02:46;97154.78;;;9.63;58.31
12757;BME280;31601;48.042;12.240;2023-02-20T03:05:17;97162.59;;;9.55;58.52
12757;BME280;31601;48.042;12.240;2023-02-20T03:07:50;97159.09;;;9.46;58.69
12757;BME280;31601;48.042;12.240;2023-02-20T03:10:20;97159.50;;;9.59;58.17
12757;BME280;31601;48.042;12.240;2023-02-20T03:12:54;97162.03;;;9.69;58.10
12757;BME280;31601;48.042;12.240;2023-02-20T03:15:28;97164.34;;;9.72;57.71
12757;BME280;31601;48.042;12.240;2023-02-20T03:18:02;97171.84;;;9.67;58.01
12757;BME280;31601;48.042;12.240;2023-02-20T03:20:35;97167.91;;;9.71;57.89
12757;BME280;31601;48.042;12.240;2023-02-20T03:23:04;97168.69;;;9.63;57.95
12757;BME280;31601;48.042;12.240;2023-02-20T03:25:35;97160.22;;;9.70;57.82
12757;BME280;31601;48.042;12.240;2023-02-20T03:28:06;97157.91;;;9.66;57.84
12757;BME280;31601;48.042;12.240;2023-02-20T03:30:37;97147.78;;;9.72;57.79
12757;BME280;31601;48.042;12.240;2023-02-20T03:33:08;97149.56;;;9.71;58.02
12757;BME280;31601;48.042;12.240;2023-02-20T03:35:54;97146.28;;;9.69;58.02
12757;BME280;31601;48.042;12.240;2023-02-20T03:38:46;97159.41;;;9.69;58.08
12757;BME280;31601;48.042;12.240;2023-02-20T03:41:34;97160.00;;;9.63;58.31
12757;BME280;31601;48.042;12.240;2023-02-20T03:44:21;97161.66;;;9.64;58.36
12757;BME280;31601;48.042;12.240;2023-02-20T03:46:51;97164.06;;;9.57;58.65
12757;BME280;31601;48.042;12.240;2023-02-20T03:49:20;97159.81;;;9.56;58.91
12757;BME280;31601;48.042;12.240;2023-02-20T03:51:47;97161.88;;;9.44;59.16
12757;BME280;31601;48.042;12.240;2023-02-20T03:54:25;97162.91;;;9.52;59.32
12757;BME280;31601;48.042;12.240;2023-02-20T03:56:55;97156.50;;;9.54;59.40
12757;BME280;31601;48.042;12.240;2023-02-20T03:59:25;97154.66;;;9.46;59.15
12757;BME280;31601;48.042;12.240;2023-02-20T04:01:56;97161.81;;;9.36;59.69
12757;BME280;31601;48.042;12.240;2023-02-20T04:04:27;97168.38;;;9.40;59.60
12757;BME280;31601;48.042;12.240;2023-02-20T04:06:55;97162.13;;;9.33;59.75
12757;BME280;31601;48.042;12.240;2023-02-20T04:09:27;97166.97;;;9.28;60.03
12757;BME280;31601;48.042;12.240;2023-02-20T04:11:59;97165.72;;;9.32;59.91
12757;BME280;31601;48.042;12.240;2023-02-20T04:14:28;97163.09;;;9.32;59.88
12757;BME280;31601;48.042;12.240;2023-02-20T04:16:59;97162.13;;;9.33;59.83
12757;BME280;31601;48.042;12.240;2023-02-20T04:19:27;97160.78;;;9.29;59.65
12757;BME280;31601;48.042;12.240;2023-02-20T04:21:54;97154.81;;;9.19;59.78
12757;BME280;31601;48.042;12.240;2023-02-20T04:24:30;97152.03;;;9.20;59.86
12757;BME280;31601;48.042;12.240;2023-02-20T04:27:00;97158.03;;;9.12;59.73
12757;BME280;31601;48.042;12.240;2023-02-20T04:29:27;97155.41;;;9.12;59.80
12757;BME280;31601;48.042;12.240;2023-02-20T04:31:54;97159.16;;;9.10;59.90
12757;BME280;31601;48.042;12.240;2023-02-20T04:34:20;97158.63;;;9.06;60.19
12757;BME280;31601;48.042;12.240;2023-02-20T04:36:47;97161.19;;;8.98;60.38
12757;BME280;31601;48.042;12.240;2023-02-20T04:39:13;97154.31;;;8.97;60.42
12757;BME280;31601;48.042;12.240;2023-02-20T04:41:41;97164.78;;;8.97;60.22
12757;BME280;31601;48.042;12.240;2023-02-20T04:44:07;97169.66;;;8.92;60.51
12757;BME280;31601;48.042;12.240;2023-02-20T04:46:51;97161.03;;;8.82;60.29
12757;BME280;31601;48.042;12.240;2023-02-20T04:49:18;97162.78;;;8.73;60.64
12757;BME280;31601;48.042;12.240;2023-02-20T04:51:44;97164.19;;;8.67;60.54
12757;BME280;31601;48.042;12.240;2023-02-20T04:54:11;97165.06;;;8.58;60.90
12757;BME280;31601;48.042;12.240;2023-02-20T04:56:37;97153.31;;;8.44;61.47
12757;BME280;31601;48.042;12.240;2023-02-20T04:59:05;97152.78;;;8.40;61.43
12757;BME280;31601;48.042;12.240;2023-02-20T05:01:31;97152.22;;;8.37;61.30
12757;BME280;31601;48.042;12.240;2023-02-20T05:03:58;97149.53;;;8.29;61.55
12757;BME280;31601;48.042;12.240;2023-02-20T05:06:24;97157.16;;;8.22;61.89
12757;BME280;31601;48.042;12.240;2023-02-20T05:08:51;97155.41;;;8.13;61.80
12757;BME280;31601;48.042;12.240;2023-02-20T05:11:17;97152.34;;;8.17;61.82
12757;BME280;31601;48.042;12.240;2023-02-20T05:13:44;97163.38;;;8.11;62.16
12757;BME280;31601;48.042;12.240;2023-02-20T05:16:12;97165.59;;;8.06;62.52
12757;BME280;31601;48.042;12.240;2023-02-20T05:18:38;97157.44;;;7.91;62.65
12757;BME280;31601;48.042;12.240;2023-02-20T05:21:05;97157.13;;;7.94;62.52
12757;BME280;31601;48.042;12.240;2023-02-20T05:23:49;97159.34;;;7.89;62.21
12757;BME280;31601;48.042;12.240;2023-02-20T05:26:17;97166.94;;;7.82;62.87
12757;BME280;31601;48.042;12.240;2023-02-20T05:28:45;97161.03;;;7.80;62.69
12757;BME280;31601;48.042;12.240;2023-02-20T05:31:13;97165.19;;;7.73;62.97
12757;BME280;31601;48.042;12.240;2023-02-20T05:33:39;97172.78;;;7.66;63.13
12757;BME280;31601;48.042;12.240;2023-02-20T05:36:06;97173.44;;;7.68;63.22
12757;BME280;31601;48.042;12.240;2023-02-20T05:38:33;97164.09;;;7.66;63.23
12757;BME280;31601;48.042;12.240;2023-02-20T05:40:59;97160.72;;;7.56;62.90
12757;BME280;31601;48.042;12.240;2023-02-20T05:43:25;97159.75;;;7.47;63.10
12757;BME280;31601;48.042;12.240;2023-02-20T05:45:52;97160.72;;;7.46;63.46
12757;BME280;31601;48.042;12.240;2023-02-20T05:48:20;97158.09;;;7.46;63.75
12757;BME280;31601;48.042;12.240;2023-02-20T05:50:46;97166.94;;;7.45;63.76
12757;BME280;31601;48.042;12.240;2023-02-20T05:53:14;97177.09;;;7.48;63.83
12757;BME280;31601;48.042;12.240;2023-02-20T05:55:41;97170.88;;;7.49;63.54
12757;BME280;31601;48.042;12.240;2023-02-20T05:58:07;97175.56;;;7.45;63.59
12757;BME280;31601;48.042;12.240;2023-02-20T06:00:34;97176.66;;;7.43;63.92
12757;BME280;31601;48.042;12.240;2023-02-20T06:03:00;97179.44;;;7.31;63.54
12757;BME280;31601;48.042;12.240;2023-02-20T06:05:28;97181.66;;;7.26;64.15
12757;BME280;31601;48.042;12.240;2023-02-20T06:07:54;97180.94;;;7.24;64.20
12757;BME280;31601;48.042;12.240;2023-02-20T06:10:22;97184.56;;;7.23;64.24
12757;BME280;31601;48.042;12.240;2023-02-20T06:12:48;97192.78;;;7.19;64.17
12757;BME280;31601;48.042;12.240;2023-02-20T06:15:14;97199.38;;;7.23;64.44
12757;BME280;31601;48.042;12.240;2023-02-20T06:17:41;97207.34;;;7.21;63.96
12757;BME280;31601;48.042;12.240;2023-02-20T06:20:08;97205.56;;;7.12;64.64
12757;BME280;31601;48.042;12.240;2023-02-20T06:22:35;97205.97;;;7.17;64.47
12757;BME280;31601;48.042;12.240;2023-02-20T06:25:02;97209.00;;;7.12;64.50
12757;BME280;31601;48.042;12.240;2023-02-20T06:27:29;97216.13;;;7.01;64.57
12757;BME280;31601;48.042;12.240;2023-02-20T06:29:55;97219.16;;;7.06;65.13
12757;BME280;31601;48.042;12.240;2023-02-20T06:32:22;97213.41;;;7.22;65.00
12757;BME280;31601;48.042;12.240;2023-02-20T06:34:49;97216.66;;;7.33;64.77
12757;BME280;31601;48.042;12.240;2023-02-20T06:37:16;97212.41;;;7.42;64.86
12757;BME280;31601;48.042;12.240;2023-02-20T06:39:43;97222.81;;;7.62;64.36
12757;BME280;31601;48.042;12.240;2023-02-20T06:42:12;97222.63;;;7.83;63.88
12757;BME280;31601;48.042;12.240;2023-02-20T06:44:38;97226.03;;;7.93;63.63
12757;BME280;31601;48.042;12.240;2023-02-20T06:47:05;97227.88;;;8.11;63.73
12757;BME280;31601;48.042;12.240;2023-02-20T06:49:33;97228.09;;;8.27;63.06
12757;BME280;31601;48.042;12.240;2023-02-20T06:51:59;97229.84;;;8.36;63.04
12757;BME280;31601;48.042;12.240;2023-02-20T06:54:26;97230.53;;;8.38;62.90
12757;BME280;31601;48.042;12.240;2023-02-20T06:56:54;97226.28;;;8.37;62.43
12757;BME280;31601;48.042;12.240;2023-02-20T06:59:21;97230.09;;;8.53;61.89
12757;BME280;31601;48.042;12.240;2023-02-20T07:01:48;97224.34;;;8.67;61.88
12757;BME280;31601;48.042;12.240;2023-02-20T07:04:20;97224.81;;;8.81;61.35
12757;BME280;31601;48.042;12.240;2023-02-20T07:06:47;97224.44;;;8.75;61.47
12757;BME280;31601;48.042;12.240;2023-02-20T07:09:17;97231.78;;;8.90;61.20
12757;BME280;31601;48.042;12.240;2023-02-20T07:11:44;97226.56;;;8.90;61.27
12757;BME280;31601;48.042;12.240;2023-02-20T07:14:12;97231.72;;;9.00;61.15
12757;BME280;31601;48.042;12.240;2023-02-20T07:16:38;97228.84;;;9.11;60.78
12757;BME280;31601;48.042;12.240;2023-02-20T07:19:05;97229.41;;;9.14;60.49
12757;BME280;31601;48.042;12.240;2023-02-20T07:21:31;97233.94;;;9.30;59.84
12757;BME280;31601;48.042;12.240;2023-02-20T07:23:58;97236.88;;;9.45;59.13
12757;BME280;31601;48.042;12.240;2023-02-20T07:26:26;97227.22;;;9.28;59.15
12757;BME280;31601;48.042;12.240;2023-02-20T07:28:53;97230.16;;;9.51;58.69
12757;BME280;31601;48.042;12.240;2023-02-20T07:31:24;97229.66;;;9.47;58.22
12757;BME280;31601;48.042;12.240;2023-02-20T07:33:50;97234.81;;;9.57;58.00
12757;BME280;31601;48.042;12.240;2023-02-20T07:36:17;97231.97;;;9.68;57.64
12757;BME280;31601;48.042;12.240;2023-02-20T07:38:52;97238.22;;;9.76;57.43
12757;BME280;31601;48.042;12.240;2023-02-20T07:41:18;97236.97;;;9.88;57.18
12757;BME280;31601;48.042;12.240;2023-02-20T07:43:44;97230.25;;;9.85;57.03
12757;BME280;31601;48.042;12.240;2023-02-20T07:46:11;97240.38;;;9.80;57.26
12757;BME280;31601;48.042;12.240;2023-02-20T07:48:39;97236.34;;;9.94;57.37
12757;BME280;31601;48.042;12.240;2023-02-20T07:51:05;97237.38;;;10.01;56.58
12757;BME280;31601;48.042;12.240;2023-02-20T07:53:32;97237.59;;;10.08;56.65
12757;BME280;31601;48.042;12.240;2023-02-20T07:55:58;97228.13;;;10.15;56.62
12757;BME280;31601;48.042;12.240;2023-02-20T07:58:25;97213.88;;;10.18;56.46
12757;BME280;31601;48.042;12.240;2023-02-20T08:00:51;97224.84;;;10.13;56.54
12757;BME280;31601;48.042;12.240;2023-02-20T08:03:18;97234.34;;;10.14;56.65
12757;BME280;31601;48.042;12.240;2023-02-20T08:05:46;97222.75;;;10.25;56.53
12757;BME280;31601;48.042;12.240;2023-02-20T08:08:13;97215.91;;;10.32;56.01
12757;BME280;31601;48.042;12.240;2023-02-20T08:10:39;97215.84;;;10.50;55.70
12757;BME280;31601;48.042;12.240;2023-02-20T08:13:08;97211.41;;;10.43;55.63
12757;BME280;31601;48.042;12.240;2023-02-20T08:15:35;97218.31;;;10.52;55.61
12757;BME280;31601;48.042;12.240;2023-02-20T08:18:01;97216.81;;;10.49;55.45
12757;BME280;31601;48.042;12.240;2023-02-20T08:20:27;97209.94;;;10.56;55.34
12757;BME280;31601;48.042;12.240;2023-02-20T08:22:55;97213.09;;;10.68;55.15
12757;BME280;31601;48.042;12.240;2023-02-20T08:25:25;97203.63;;;10.84;54.44
12757;BME280;31601;48.042;12.240;2023-02-20T08:27:51;97205.44;;;10.91;54.53
12757;BME280;31601;48.042;12.240;2023-02-20T08:30:20;97198.88;;;11.04;54.49
12757;BME280;31601;48.042;12.240;2023-02-20T08:32:48;97195.44;;;11.03;54.06
12757;BME280;31601;48.042;12.240;2023-02-20T08:35:15;97204.50;;;11.17;53.62
12757;BME280;31601;48.042;12.240;2023-02-20T08:37:42;97189.84;;;11.23;53.16
12757;BME280;31601;48.042;12.240;2023-02-20T08:40:11;97186.91;;;11.26;52.62
12757;BME280;31601;48.042;12.240;2023-02-20T08:42:38;97180.16;;;11.40;52.50
12757;BME280;31601;48.042;12.240;2023-02-20T08:45:06;97176.91;;;11.38;52.38
12757;BME280;31601;48.042;12.240;2023-02-20T08:47:33;97177.53;;;11.40;52.33
12757;BME280;31601;48.042;12.240;2023-02-20T08:50:00;97176.56;;;11.57;51.96
12757;BME280;31601;48.042;12.240;2023-02-20T08:52:26;97180.94;;;11.73;51.80
12757;BME280;31601;48.042;12.240;2023-02-20T08:54:52;97178.78;;;11.93;51.14
12757;BME280;31601;48.042;12.240;2023-02-20T08:57:20;97169.75;;;11.96;51.08
12757;BME280;31601;48.042;12.240;2023-02-20T08:59:46;97169.59;;;11.97;50.51
12757;BME280;31601;48.042;12.240;2023-02-20T09:02:17;97173.50;;;12.02;50.79
12757;BME280;31601;48.042;12.240;2023-02-20T09:04:44;97169.69;;;12.12;50.35
12757;BME280;31601;48.042;12.240;2023-02-20T09:07:12;97168.16;;;12.26;50.45
12757;BME280;31601;48.042;12.240;2023-02-20T09:09:39;97164.84;;;12.32;50.05
12757;BME280;31601;48.042;12.240;2023-02-20T09:12:06;97158.00;;;12.15;50.19
12757;BME280;31601;48.042;12.240;2023-02-20T09:14:34;97155.66;;;12.28;49.60
12757;BME280;31601;48.042;12.240;2023-02-20T09:17:01;97159.16;;;12.52;49.50
12757;BME280;31601;48.042;12.240;2023-02-20T09:19:27;97151.88;;;12.62;49.14
12757;BME280;31601;48.042;12.240;2023-02-20T09:21:53;97140.72;;;12.52;49.13
12757;BME280;31601;48.042;12.240;2023-02-20T09:24:20;97135.41;;;12.60;49.10
12757;BME280;31601;48.042;12.240;2023-02-20T09:26:46;97137.66;;;12.71;48.69
12757;BME280;31601;48.042;12.240;2023-02-20T09:29:13;97143.28;;;12.68;48.50
12757;BME280;31601;48.042;12.240;2023-02-20T09:31:40;97136.59;;;12.81;48.28
12757;BME280;31601;48.042;12.240;2023-02-20T09:34:07;97132.97;;;12.82;48.05
12757;BME280;31601;48.042;12.240;2023-02-20T09:36:34;97134.88;;;12.88;48.08
12757;BME280;31601;48.042;12.240;2023-02-20T09:39:00;97153.81;;;12.92;48.32
12757;BME280;31601;48.042;12.240;2023-02-20T09:41:37;97151.91;;;13.00;47.88
12757;BME280;31601;48.042;12.240;2023-02-20T09:44:11;97145.22;;;12.98;47.49
12757;BME280;31601;48.042;12.240;2023-02-20T09:46:42;97140.81;;;12.90;47.35
12757;BME280;31601;48.042;12.240;2023-02-20T09:49:11;97138.00;;;12.68;47.91
12757;BME280;31601;48.042;12.240;2023-02-20T09:51:42;97131.47;;;12.25;48.76
12757;BME280;31601;48.042;12.240;2023-02-20T09:54:11;97127.34;;;12.30;49.59
12757;BME280;31601;48.042;12.240;2023-02-20T09:56:41;97129.03;;;12.23;50.00
12757;BME280;31601;48.042;12.240;2023-02-20T09:59:13;97124.28;;;12.18;50.79
12757;BME280;31601;48.042;12.240;2023-02-20T10:01:51;97108.75;;;12.32;50.43
12757;BME280;31601;48.042;12.240;2023-02-20T10:04:20;97108.75;;;12.32;49.30
12757;BME280;31601;48.042;12.240;2023-02-20T10:06:49;97110.34;;;12.41;49.76
12757;BME280;31601;48.042;12.240;2023-02-20T10:09:16;97108.50;;;12.50;49.30
12757;BME280;31601;48.042;12.240;2023-02-20T10:11:48;97100.59;;;12.50;48.93
12757;BME280;31601;48.042;12.240;2023-02-20T10:14:31;97095.88;;;12.45;49.86
12757;BME280;31601;48.042;12.240;2023-02-20T10:17:09;97087.81;;;12.47;49.50
12757;BME280;31601;48.042;12.240;2023-02-20T10:19:43;97081.78;;;12.61;49.33
12757;BME280;31601;48.042;12.240;2023-02-20T10:22:18;97078.16;;;12.62;49.55
12757;BME280;31601;48.042;12.240;2023-02-20T10:24:55;97086.03;;;12.85;48.94
12757;BME280;31601;48.042;12.240;2023-02-20T10:27:30;97079.06;;;12.93;49.32
12757;BME280;31601;48.042;12.240;2023-02-20T10:30:03;97066.09;;;13.06;48.86
12757;BME280;31601;48.042;12.240;2023-02-20T10:32:35;97063.28;;;13.07;48.69
12757;BME280;31601;48.042;12.240;2023-02-20T10:35:07;97062.22;;;13.17;48.61
12757;BME280;31601;48.042;12.240;2023-02-20T10:37:37;97057.88;;;13.24;48.09
12757;BME280;31601;48.042;12.240;2023-02-20T10:40:12;97062.31;;;13.23;48.37
12757;BME280;31601;48.042;12.240;2023-02-20T10:42:46;97047.91;;;13.34;47.99
12757;BME280;31601;48.042;12.240;2023-02-20T10:45:19;97048.28;;;13.46;47.59
12757;BME280;31601;48.042;12.240;2023-02-20T10:47:56;97049.53;;;13.65;47.08
12757;BME280;31601;48.042;12.240;2023-02-20T10:50:28;97046.81;;;13.73;46.95
12757;BME280;31601;48.042;12.240;2023-02-20T10:53:01;97035.47;;;13.58;46.56
12757;BME280;31601;48.042;12.240;2023-02-20T10:55:34;97039.00;;;13.50;47.25
12757;BME280;31601;48.042;12.240;2023-02-20T10:58:05;97033.91;;;13.34;47.81
12757;BME280;31601;48.042;12.240;2023-02-20T11:00:38;97027.28;;;13.38;47.47
12757;BME280;31601;48.042;12.240;2023-02-20T11:03:10;97029.38;;;13.42;47.21
12757;BME280;31601;48.042;12.240;2023-02-20T11:05:45;97031.00;;;13.58;47.20
12757;BME280;31601;48.042;12.240;2023-02-20T11:08:12;97021.19;;;13.67;46.45
12757;BME280;31601;48.042;12.240;2023-02-20T11:10:45;97012.41;;;13.82;46.79
12757;BME280;31601;48.042;12.240;2023-02-20T11:13:14;97007.16;;;13.82;47.03
12757;BME280;31601;48.042;12.240;2023-02-20T11:15:43;97001.75;;;13.90;46.53
12757;BME280;31601;48.042;12.240;2023-02-20T11:18:19;97004.00;;;13.93;46.69
12757;BME280;31601;48.042;12.240;2023-02-20T11:20:50;96998.75;;;13.93;46.30
12757;BME280;31601;48.042;12.240;2023-02-20T11:23:36;96983.59;;;14.17;46.25
12757;BME280;31601;48.042;12.240;2023-02-20T11:26:16;96973.50;;;14.27;45.62
12757;BME280;31601;48.042;12.240;2023-02-20T11:28:55;96967.84;;;14.30;46.37
12757;BME280;31601;48.042;12.240;2023-02-20T11:31:23;96975.28;;;14.41;45.79
12757;BME280;31601;48.042;12.240;2023-02-20T11:33:53;96970.75;;;14.35;45.30
12757;BME280;31601;48.042;12.240;2023-02-20T11:36:22;96969.13;;;14.34;45.34
12757;BME280;31601;48.042;12.240;2023-02-20T11:38:56;96957.53;;;14.57;45.11
12757;BME280;31601;48.042;12.240;2023-02-20T11:41:25;96953.97;;;14.43;45.25
12757;BME280;31601;48.042;12.240;2023-02-20T11:44:17;96945.47;;;14.69;45.33
12757;BME280;31601;48.042;12.240;2023-02-20T11:46:45;96951.75;;;14.68;45.27
12757;BME280;31601;48.042;12.240;2023-02-20T11:49:24;96945.03;;;14.65;45.29
12757;BME280;31601;48.042;12.240;2023-02-20T11:51:51;96939.44;;;14.75;44.94
12757;BME280;31601;48.042;12.240;2023-02-20T11:54:20;96933.38;;;14.81;44.58
12757;BME280;31601;48.042;12.240;2023-02-20T11:56:56;96929.56;;;14.91;44.32
12757;BME280;31601;48.042;12.240;2023-02-20T11:59:27;96931.78;;;14.87;43.70
12757;BME280;31601;48.042;12.240;2023-02-20T12:01:55;96928.84;;;15.10;44.08
12757;BME280;31601;48.042;12.240;2023-02-20T12:04:36;96926.91;;;15.26;44.11
12757;BME280;31601;48.042;12.240;2023-02-20T12:07:16;96921.03;;;15.30;44.02
12757;BME280;31601;48.042;12.240;2023-02-20T12:09:45;96913.53;;;15.34;43.90
12757;BME280;31601;48.042;12.240;2023-02-20T12:12:14;96918.66;;;15.49;43.86
12757;BME280;31601;48.042;12.240;2023-02-20T12:14:41;96910.50;;;15.44;42.78
12757;BME280;31601;48.042;12.240;2023-02-20T12:17:13;96904.41;;;15.43;43.53
12757;BME280;31601;48.042;12.240;2023-02-20T12:19:51;96906.09;;;15.57;43.70
12757;BME280;31601;48.042;12.240;2023-02-20T12:22:27;96895.94;;;15.68;43.23
12757;BME280;31601;48.042;12.240;2023-02-20T12:25:13;96882.47;;;15.56;42.06
12757;BME280;31601;48.042;12.240;2023-02-20T12:27:50;96880.69;;;15.70;41.99
12757;BME280;31601;48.042;12.240;2023-02-20T12:30:26;96884.78;;;15.72;42.64
12757;BME280;31601;48.042;12.240;2023-02-20T12:33:04;96874.13;;;15.52;43.18
12757;BME280;31601;48.042;12.240;2023-02-20T12:35:43;96872.31;;;15.53;41.79
12757;BME280;31601;48.042;12.240;2023-02-20T12:38:25;96865.41;;;15.58;41.05
12757;BME280;31601;48.042;12.240;2023-02-20T12:41:15;96854.03;;;15.65;41.49
12757;BME280;31601;48.042;12.240;2023-02-20T12:43:49;96855.63;;;15.59;40.59
12757;BME280;31601;48.042;12.240;2023-02-20T12:46:20;96849.16;;;15.68;40.19
12757;BME280;31601;48.042;12.240;2023-02-20T12:49:03;96852.38;;;15.57;40.19
12757;BME280;31601;48.042;12.240;2023-02-20T12:51:38;96843.84;;;15.62;40.34
12757;BME280;31601;48.042;12.240;2023-02-20T12:54:22;96841.00;;;15.63;40.40
12757;BME280;31601;48.042;12.240;2023-02-20T12:57:04;96841.81;;;15.70;40.52
12757;BME280;31601;48.042;12.240;2023-02-20T12:59:34;96840.44;;;15.81;40.82
12757;BME280;31601;48.042;12.240;2023-02-20T13:02:16;96836.38;;;15.92;40.72
12757;BME280;31601;48.042;12.240;2023-02-20T13:04:47;96823.75;;;15.94;40.33
12757;BME280;31601;48.042;12.240;2023-02-20T13:07:23;96820.31;;;15.80;40.63
12757;BME280;31601;48.042;12.240;2023-02-20T13:09:58;96824.16;;;15.91;39.74
12757;BME280;31601;48.042;12.240;2023-02-20T13:12:26;96813.78;;;15.83;39.49